createdAt,value
2018-02-17T00:01:22.017Z,16.67
2018-02-17T00:03:49.477Z,15.37
2018-02-17T00:06:16.937Z,15.83
2018-02-17T00:08:44.389Z,17.40
2018-02-17T00:11:11.857Z,16.37
2018-02-17T00:13:39.305Z,16.00
2018-02-17T00:16:06.768Z,18.30
2018-02-17T00:18:34.221Z,16.83
2018-02-17T00:21:01.681Z,15.30
2018-02-17T00:23:29.138Z,15.60
2018-02-17T00:25:56.610Z,15.20
2018-02-17T00:28:24.062Z,15.70
2018-02-17T00:30:51.526Z,16.10
2018-02-17T00:33:18.986Z,17.57
2018-02-17T00:35:46.471Z,15.97
2018-02-17T00:38:14.688Z,17.03
2018-02-17T00:40:42.917Z,19.63
2018-02-17T00:43:10.378Z,17.03
2018-02-17T00:45:37.861Z,17.00
2018-02-17T00:48:06.108Z,18.83
2018-02-17T00:50:33.558Z,17.50
2018-02-17T00:53:01.026Z,17.37
2018-02-17T00:55:28.478Z,20.07
2018-02-17T00:57:55.936Z,19.03
2018-02-17T01:00:23.393Z,18.90
2018-02-17T01:02:50.859Z,18.80
2018-02-17T01:05:18.305Z,16.97
2018-02-17T01:07:45.766Z,19.03
2018-02-17T01:10:13.221Z,18.10
2018-02-17T01:12:40.690Z,16.80
2018-02-17T01:15:08.138Z,18.70
2018-02-17T01:17:35.597Z,19.40
2018-02-17T01:20:03.055Z,19.20
2018-02-17T01:22:30.521Z,18.53
2018-02-17T01:24:57.966Z,19.27
2018-02-17T01:27:25.424Z,20.23
2018-02-17T01:29:52.881Z,18.80
2018-02-17T01:32:20.338Z,17.60
2018-02-17T01:34:47.794Z,18.67
2018-02-17T01:37:15.255Z,20.03
2018-02-17T01:39:42.705Z,18.90
2018-02-17T01:42:10.170Z,18.47
2018-02-17T01:44:37.621Z,17.60
2018-02-17T01:47:05.080Z,19.93
2018-02-17T01:49:32.530Z,20.90
2018-02-17T01:51:59.995Z,22.77
2018-02-17T01:54:27.450Z,20.53
2018-02-17T01:56:54.917Z,21.67
2018-02-17T01:59:23.181Z,23.17
2018-02-17T02:01:50.641Z,21.57
2018-02-17T02:04:18.103Z,23.50
2018-02-17T02:06:45.553Z,21.93
2018-02-17T02:09:13.012Z,21.90
2018-02-17T02:11:40.476Z,24.83
2018-02-17T02:14:07.935Z,27.17
2018-02-17T02:16:35.390Z,28.00
2018-02-17T02:19:02.875Z,23.50
2018-02-17T02:21:30.326Z,24.73
2018-02-17T02:23:57.789Z,25.37
2018-02-17T02:26:25.242Z,26.60
2018-02-17T02:28:52.700Z,27.10
2018-02-17T02:31:20.158Z,27.67
2018-02-17T02:33:47.622Z,27.23
2018-02-17T02:36:15.079Z,23.67
2018-02-17T02:38:42.530Z,23.77
2018-02-17T02:41:09.986Z,27.73
2018-02-17T02:43:37.453Z,26.40
2018-02-17T02:46:04.906Z,25.60
2018-02-17T02:48:32.388Z,24.77
2018-02-17T02:51:00.609Z,26.50
2018-02-17T02:53:28.079Z,23.37
2018-02-17T02:55:55.528Z,23.53
2018-02-17T02:58:22.988Z,25.40
2018-02-17T03:00:50.441Z,24.67
2018-02-17T03:03:17.901Z,24.30
2018-02-17T03:05:45.353Z,22.33
2018-02-17T03:08:12.817Z,21.80
2018-02-17T03:10:40.273Z,20.50
2018-02-17T03:13:07.737Z,20.07
2018-02-17T03:15:35.185Z,21.57
2018-02-17T03:18:02.645Z,22.60
2018-02-17T03:20:30.101Z,24.60
2018-02-17T03:22:57.573Z,22.80
2018-02-17T03:25:25.030Z,22.47
2018-02-17T03:27:52.473Z,23.77
2018-02-17T03:30:19.932Z,23.50
2018-02-17T03:32:47.384Z,22.63
2018-02-17T03:35:14.850Z,22.10
2018-02-17T03:37:42.300Z,25.73
2018-02-17T03:40:09.769Z,24.60
2018-02-17T03:42:37.217Z,21.83
2018-02-17T03:45:04.688Z,23.53
2018-02-17T03:47:32.163Z,24.23
2018-02-17T03:50:00.402Z,23.87
2018-02-17T03:52:27.844Z,25.00
2018-02-17T03:54:55.305Z,23.40
2018-02-17T03:57:22.766Z,23.40
2018-02-17T03:59:50.220Z,21.27
2018-02-17T04:02:17.673Z,24.50
2018-02-17T04:04:45.149Z,25.30
2018-02-17T04:07:12.597Z,22.10
2018-02-17T04:09:40.053Z,24.20
2018-02-17T04:12:07.505Z,25.40
2018-02-17T04:14:34.962Z,23.70
2018-02-17T04:17:02.416Z,21.50
2018-02-17T04:19:29.876Z,24.03
2018-02-17T04:21:57.329Z,22.20
2018-02-17T04:24:25.561Z,26.20
2018-02-17T04:26:53.017Z,24.03
2018-02-17T04:29:20.470Z,23.33
2018-02-17T04:31:47.928Z,26.13
2018-02-17T04:34:15.386Z,25.10
2018-02-17T04:36:42.837Z,25.83
2018-02-17T04:39:10.301Z,24.27
2018-02-17T04:41:43.352Z,22.07
2018-02-17T04:57:46.625Z,22.33
2018-02-17T05:00:15.652Z,24.17
2018-02-17T05:02:58.002Z,23.70
2018-02-17T05:05:40.320Z,23.90
2018-02-17T05:08:16.425Z,23.60
2018-02-17T05:10:43.885Z,23.10
2018-02-17T05:13:11.349Z,24.70
2018-02-17T05:18:58.256Z,22.90
2018-02-17T05:21:29.128Z,26.17
2018-02-17T05:24:00.509Z,23.37
2018-02-17T05:26:33.678Z,23.33
2018-02-17T05:29:16.018Z,25.97
2018-02-17T05:34:43.578Z,25.50
2018-02-17T05:37:11.041Z,24.80
2018-02-17T05:39:39.386Z,24.53
2018-02-17T05:42:25.608Z,23.70
2018-02-17T05:44:55.893Z,23.90
2018-02-17T05:47:34.037Z,23.63
2018-02-17T05:50:01.493Z,23.40
2018-02-17T05:52:28.953Z,24.17
2018-02-17T05:54:56.409Z,21.47
2018-02-17T05:57:23.868Z,21.50
2018-02-17T05:59:51.321Z,24.23
2018-02-17T06:02:18.776Z,31.50
2018-02-17T06:04:46.230Z,36.57
2018-02-17T06:07:13.688Z,35.63
2018-02-17T06:09:41.132Z,25.23
2018-02-17T06:12:08.620Z,23.40
2018-02-17T06:14:36.093Z,25.10
2018-02-17T06:17:04.305Z,22.00
2018-02-17T06:19:31.765Z,23.43
2018-02-17T06:21:59.217Z,22.87
2018-02-17T06:24:26.679Z,24.30
2018-02-17T06:26:54.130Z,24.23
2018-02-17T06:29:21.606Z,23.10
2018-02-17T06:31:49.073Z,24.40
2018-02-17T06:34:16.533Z,23.53
2018-02-17T06:36:43.985Z,24.40
2018-02-17T06:39:11.466Z,25.23
2018-02-17T06:41:39.677Z,24.90
2018-02-17T06:44:07.140Z,24.20
2018-02-17T06:46:34.593Z,23.80
2018-02-17T06:49:02.053Z,23.43
2018-02-17T06:51:29.505Z,24.37
2018-02-17T06:53:56.967Z,23.47
2018-02-17T06:56:24.431Z,24.20
2018-02-17T06:58:51.883Z,24.00
2018-02-17T07:01:19.333Z,24.87
2018-02-17T07:03:46.799Z,24.43
2018-02-17T07:06:14.498Z,24.43
2018-02-17T07:08:42.736Z,22.60
2018-02-17T07:11:10.191Z,21.60
2018-02-17T07:13:37.653Z,24.47
2018-02-17T07:16:05.136Z,24.50
2018-02-17T07:18:32.602Z,22.50
2018-02-17T07:21:00.062Z,25.77
2018-02-17T07:23:27.501Z,24.20
2018-02-17T07:25:54.978Z,26.87
2018-02-17T07:28:22.426Z,25.60
2018-02-17T07:30:49.894Z,25.00
2018-02-17T07:33:18.149Z,25.10
2018-02-17T07:35:45.609Z,23.90
2018-02-17T07:38:13.061Z,21.03
2018-02-17T07:40:40.521Z,23.03
2018-02-17T07:43:07.976Z,21.97
2018-02-17T07:45:35.435Z,22.83
2018-02-17T07:48:02.886Z,22.53
2018-02-17T07:50:30.350Z,23.67
2018-02-17T07:52:57.793Z,22.17
2018-02-17T07:55:25.252Z,20.80
2018-02-17T07:57:52.716Z,23.10
2018-02-17T08:00:20.174Z,21.07
2018-02-17T08:02:47.634Z,20.20
2018-02-17T08:05:15.086Z,21.57
2018-02-17T08:07:42.540Z,23.13
2018-02-17T08:10:10.001Z,21.73
2018-02-17T08:12:37.454Z,22.53
2018-02-17T08:15:04.925Z,22.23
2018-02-17T08:17:32.377Z,22.80
2018-02-17T08:19:59.837Z,24.33
2018-02-17T08:22:28.061Z,23.33
2018-02-17T08:24:55.533Z,22.90
2018-02-17T08:27:22.985Z,23.90
2018-02-17T08:29:50.447Z,22.40
2018-02-17T08:32:17.910Z,20.53
2018-02-17T08:34:46.137Z,20.30
2018-02-17T08:37:13.593Z,20.77
2018-02-17T08:39:41.067Z,21.30
2018-02-17T08:42:08.531Z,20.93
2018-02-17T08:44:35.982Z,20.60
2018-02-17T08:47:03.441Z,23.20
2018-02-17T08:49:30.889Z,22.03
2018-02-17T08:51:58.368Z,20.87
2018-02-17T08:54:25.821Z,19.13
2018-02-17T08:56:53.285Z,21.63
2018-02-17T08:59:20.738Z,21.20
2018-02-17T09:01:48.200Z,20.97
2018-02-17T09:04:16.253Z,21.50
2018-02-17T09:06:43.750Z,22.10
2018-02-17T09:09:11.207Z,21.57
2018-02-17T09:11:38.669Z,20.73
2018-02-17T09:14:06.124Z,21.53
2018-02-17T09:16:33.585Z,20.47
2018-02-17T09:19:01.038Z,19.93
2018-02-17T09:21:28.496Z,19.90
2018-02-17T09:23:55.946Z,19.77
2018-02-17T09:26:23.406Z,20.43
2018-02-17T09:28:50.859Z,19.17
2018-02-17T09:31:18.317Z,20.93
2018-02-17T09:33:45.773Z,18.77
2018-02-17T09:36:13.238Z,19.23
2018-02-17T09:38:40.697Z,18.23
2018-02-17T09:41:08.158Z,20.20
2018-02-17T09:43:35.622Z,20.90
2018-02-17T09:46:03.889Z,19.37
2018-02-17T09:48:31.310Z,19.30
2018-02-17T09:50:58.782Z,19.23
2018-02-17T09:53:26.244Z,18.97
2018-02-17T09:55:53.701Z,20.77
2018-02-17T09:58:21.164Z,18.60
2018-02-17T10:00:48.617Z,18.63
2018-02-17T10:03:16.081Z,19.20
2018-02-17T10:05:43.542Z,18.93
2018-02-17T10:08:10.997Z,20.17
2018-02-17T10:10:38.449Z,18.40
2018-02-17T10:13:05.909Z,17.50
2018-02-17T10:15:33.374Z,19.77
2018-02-17T10:18:00.841Z,19.23
2018-02-17T10:20:29.061Z,19.43
2018-02-17T10:22:56.523Z,18.90
2018-02-17T10:25:23.986Z,19.57
2018-02-17T10:27:52.215Z,17.50
2018-02-17T10:30:20.617Z,16.60
2018-02-17T10:32:48.075Z,17.40
2018-02-17T10:35:15.548Z,17.80
2018-02-17T10:37:43.002Z,16.57
2018-02-17T10:40:11.234Z,18.40
2018-02-17T10:42:39.458Z,17.17
2018-02-17T10:45:06.918Z,19.80
2018-02-17T10:47:34.373Z,16.33
2018-02-17T10:50:01.838Z,17.57
2018-02-17T10:52:29.290Z,20.27
2018-02-17T10:54:56.754Z,18.10
2018-02-17T10:57:24.210Z,18.33
2018-02-17T10:59:51.674Z,18.70
2018-02-17T11:02:19.126Z,16.90
2018-02-17T11:04:46.599Z,17.10
2018-02-17T11:07:14.046Z,17.87
2018-02-17T11:09:41.514Z,16.20
2018-02-17T11:12:09.744Z,17.30
2018-02-17T11:14:37.199Z,17.13
2018-02-17T11:17:04.650Z,14.83
2018-02-17T11:19:32.110Z,14.20
2018-02-17T11:21:59.566Z,14.97
2018-02-17T11:24:27.034Z,15.60
2018-02-17T11:26:54.481Z,14.00
2018-02-17T11:29:21.941Z,15.73
2018-02-17T11:31:49.398Z,14.73
2018-02-17T11:34:16.857Z,14.00
2018-02-17T11:36:44.329Z,14.00
2018-02-17T11:39:11.791Z,14.47
2018-02-17T11:41:39.241Z,13.50
2018-02-17T11:44:06.703Z,14.30
2018-02-17T11:46:34.154Z,14.20
2018-02-17T11:49:01.621Z,15.60
2018-02-17T11:51:29.085Z,13.50
2018-02-17T11:53:56.550Z,14.77
2018-02-17T11:56:24.780Z,14.13
2018-02-17T11:58:52.234Z,13.37
2018-02-17T12:01:19.710Z,13.43
2018-02-17T12:03:47.170Z,12.70
2018-02-17T12:06:14.617Z,14.63
2018-02-17T12:08:42.075Z,14.17
2018-02-17T12:11:09.537Z,14.30
2018-02-17T12:13:36.990Z,13.27
2018-02-17T12:16:04.453Z,13.30
2018-02-17T12:18:31.926Z,14.17
2018-02-17T12:20:59.388Z,13.40
2018-02-17T12:23:26.879Z,13.17
2018-02-17T12:25:54.337Z,11.93
2018-02-17T12:28:21.795Z,13.33
2018-02-17T12:30:49.259Z,14.40
2018-02-17T12:33:16.715Z,14.37
2018-02-17T12:35:44.166Z,14.63
2018-02-17T12:38:11.620Z,15.03
2018-02-17T12:40:39.081Z,15.17
2018-02-17T12:43:06.529Z,13.30
2018-02-17T12:45:33.989Z,14.80
2018-02-17T12:48:01.444Z,14.80
2018-02-17T12:50:28.906Z,15.10
2018-02-17T12:52:56.355Z,15.30
2018-02-17T12:55:23.839Z,15.60
2018-02-17T12:57:51.302Z,17.03
2018-02-17T13:00:18.751Z,14.90
2018-02-17T13:02:46.210Z,16.27
2018-02-17T13:05:13.661Z,14.37
2018-02-17T13:07:41.131Z,13.97
2018-02-17T13:10:08.621Z,16.77
2018-02-17T13:12:36.087Z,16.90
2018-02-17T13:15:04.302Z,17.30
2018-02-17T13:17:31.757Z,18.70
2018-02-17T13:19:59.217Z,16.13
2018-02-17T13:22:26.670Z,17.50
2018-02-17T13:24:54.126Z,17.53
2018-02-17T13:27:21.587Z,18.33
2018-02-17T13:29:49.042Z,16.80
2018-02-17T13:32:16.520Z,16.67
2018-02-17T13:34:43.972Z,15.63
2018-02-17T13:37:11.437Z,16.77
2018-02-17T13:39:38.893Z,15.20
2018-02-17T13:42:06.350Z,15.53
2018-02-17T13:44:33.801Z,14.43
2018-02-17T13:47:01.262Z,14.80
2018-02-17T13:49:28.718Z,13.07
2018-02-17T13:51:56.183Z,14.60
2018-02-17T13:54:23.637Z,14.30
2018-02-17T13:56:51.093Z,13.83
2018-02-17T13:59:18.558Z,13.20
2018-02-17T14:01:46.022Z,13.00
2018-02-17T14:04:13.476Z,12.50
2018-02-17T14:06:40.935Z,10.47
2018-02-17T14:09:08.397Z,12.00
2018-02-17T14:11:35.882Z,11.40
2018-02-17T14:14:04.102Z,11.90
2018-02-17T14:16:31.559Z,11.50
2018-02-17T14:18:59.026Z,10.13
2018-02-17T14:21:26.483Z,9.90
2018-02-17T14:23:53.950Z,9.93
2018-02-17T14:26:21.409Z,9.33
2018-02-17T14:28:48.861Z,9.83
2018-02-17T14:31:16.320Z,9.07
2018-02-17T14:33:43.777Z,9.10
2018-02-17T14:36:11.238Z,9.70
2018-02-17T14:38:38.690Z,9.20
2018-02-17T14:41:06.148Z,8.90
2018-02-17T14:43:33.593Z,7.37
2018-02-17T14:46:01.046Z,7.70
2018-02-17T14:48:28.527Z,7.03
2018-02-17T14:50:55.966Z,6.37
2018-02-17T14:53:23.419Z,7.03
2018-02-17T14:55:50.870Z,6.23
2018-02-17T14:58:18.333Z,7.90
2018-02-17T15:00:45.779Z,6.67
2018-02-17T15:03:13.235Z,5.90
2018-02-17T15:05:40.691Z,5.63
2018-02-17T15:08:08.161Z,6.80
2018-02-17T15:10:35.602Z,6.67
2018-02-17T15:13:03.056Z,7.20
2018-02-17T15:15:30.506Z,6.00
2018-02-17T15:17:58.060Z,6.57
2018-02-17T15:20:25.410Z,5.80
2018-02-17T15:22:52.859Z,6.50
2018-02-17T15:25:20.323Z,7.20
2018-02-17T15:27:47.774Z,8.10
2018-02-17T15:30:15.234Z,8.70
2018-02-17T15:32:42.703Z,8.67
2018-02-17T15:35:10.157Z,9.00
2018-02-17T15:37:37.611Z,7.67
2018-02-17T15:40:05.065Z,9.53
2018-02-17T15:42:32.522Z,10.13
2018-02-17T15:44:59.987Z,10.13
2018-02-17T15:47:27.429Z,9.53
2018-02-17T15:49:54.895Z,10.93
2018-02-17T15:52:22.355Z,10.37
2018-02-17T15:54:49.838Z,9.97
2018-02-17T15:57:17.294Z,10.57
2018-02-17T15:59:44.754Z,10.80
2018-02-17T16:02:12.216Z,11.00
2018-02-17T16:04:39.678Z,13.13
2018-02-17T16:07:07.129Z,12.03
2018-02-17T16:09:34.585Z,14.13
2018-02-17T16:12:02.046Z,11.50
2018-02-17T16:14:29.508Z,15.80
2018-02-17T16:16:57.725Z,13.73
2018-02-17T16:19:25.210Z,14.47
2018-02-17T16:21:52.669Z,13.00
2018-02-17T16:24:20.127Z,13.90
2018-02-17T16:26:47.590Z,15.53
2018-02-17T16:29:15.057Z,15.70
2018-02-17T16:31:42.518Z,14.40
2018-02-17T16:34:09.974Z,17.60
2018-02-17T16:36:37.439Z,16.13
2018-02-17T16:39:05.658Z,17.57
2018-02-17T16:41:33.130Z,17.53
2018-02-17T16:44:00.581Z,15.93
2018-02-17T16:46:28.056Z,16.77
2018-02-17T16:48:55.502Z,17.80
2018-02-17T16:51:23.731Z,17.80
2018-02-17T16:53:51.181Z,17.80
2018-02-17T16:56:19.413Z,18.70
2018-02-17T16:58:46.861Z,18.37
2018-02-17T17:01:14.326Z,16.67
2018-02-17T17:03:41.781Z,18.40
2018-02-17T17:06:09.241Z,18.13
2018-02-17T17:08:36.697Z,18.77
2018-02-17T17:11:04.166Z,19.30
2018-02-17T17:13:31.623Z,19.83
2018-02-17T17:15:59.082Z,20.00
2018-02-17T17:18:26.533Z,20.53
2018-02-17T17:20:54.000Z,20.33
2018-02-17T17:23:21.454Z,19.67
2018-02-17T17:25:48.922Z,19.07
2018-02-17T17:28:17.137Z,21.47
2018-02-17T17:30:44.605Z,18.50
2018-02-17T17:33:12.071Z,18.73
2018-02-17T17:35:39.530Z,18.70
2018-02-17T17:38:06.986Z,19.90
2018-02-17T17:40:34.447Z,21.13
2018-02-17T17:43:01.921Z,23.40
2018-02-17T17:45:29.370Z,20.30
2018-02-17T17:47:56.857Z,20.10
2018-02-17T17:50:24.294Z,21.27
2018-02-17T17:52:51.762Z,20.60
2018-02-17T17:55:19.212Z,20.73
2018-02-17T17:57:46.677Z,22.17
2018-02-17T18:00:14.902Z,22.83
2018-02-17T18:02:42.381Z,20.97
2018-02-17T18:05:09.833Z,20.50
2018-02-17T18:07:37.295Z,22.10
2018-02-17T18:10:04.754Z,21.53
2018-02-17T18:12:32.213Z,22.20
2018-02-17T18:14:59.677Z,20.30
2018-02-17T18:17:27.145Z,22.70
2018-02-17T18:19:55.372Z,22.70
2018-02-17T18:22:22.835Z,21.23
2018-02-17T18:24:50.290Z,23.73
2018-02-17T18:27:17.774Z,23.40
2018-02-17T18:29:45.250Z,22.90
2018-02-17T18:32:13.539Z,24.83
2018-02-17T18:34:40.937Z,25.67
2018-02-17T18:37:08.394Z,23.37
2018-02-17T18:39:35.849Z,28.80
2018-02-17T18:42:03.301Z,26.83
2018-02-17T18:44:30.774Z,25.07
2018-02-17T18:46:58.223Z,24.97
2018-02-17T18:49:25.687Z,27.13
2018-02-17T18:51:53.907Z,29.00
2018-02-17T18:54:22.141Z,27.93
2018-02-17T18:56:49.594Z,28.17
2018-02-17T18:59:17.053Z,27.77
2018-02-17T19:01:44.517Z,30.77
2018-02-17T19:04:11.979Z,27.30
2018-02-17T19:06:39.440Z,27.37
2018-02-17T19:09:06.904Z,28.57
2018-02-17T19:11:34.351Z,31.90
2018-02-17T19:14:01.817Z,27.57
2018-02-17T19:16:29.281Z,28.83
2018-02-17T19:18:57.509Z,29.27
2018-02-17T19:21:24.966Z,27.07
2018-02-17T19:23:52.438Z,29.63
2018-02-17T19:26:20.664Z,28.20
2018-02-17T19:28:48.886Z,28.60
2018-02-17T19:31:16.336Z,30.83
2018-02-17T19:33:43.823Z,31.33
2018-02-17T19:36:11.271Z,28.70
2018-02-17T19:38:38.742Z,29.03
2018-02-17T19:41:06.190Z,29.10
2018-02-17T19:43:33.657Z,28.67
2018-02-17T19:46:01.110Z,30.30
2018-02-17T19:48:28.572Z,32.10
2018-02-17T19:50:56.790Z,27.80
2018-02-17T19:53:24.256Z,30.10
2018-02-17T19:55:51.714Z,31.97
2018-02-17T19:58:19.181Z,28.43
2018-02-17T20:00:46.633Z,28.03
2018-02-17T20:03:14.098Z,28.77
2018-02-17T20:05:41.554Z,29.20
2018-02-17T20:08:09.014Z,32.17
2018-02-17T20:10:36.469Z,31.17
2018-02-17T20:13:03.926Z,27.57
2018-02-17T20:15:31.377Z,30.23
2018-02-17T20:17:58.834Z,29.83
2018-02-17T20:20:26.294Z,30.83
2018-02-17T20:22:53.754Z,31.47
2018-02-17T20:25:21.221Z,30.60
2018-02-17T20:27:48.669Z,31.40
2018-02-17T20:30:16.136Z,31.37
2018-02-17T20:32:43.591Z,29.90
2018-02-17T20:35:11.054Z,31.17
2018-02-17T20:37:38.509Z,29.50
2018-02-17T20:40:05.976Z,31.00
2018-02-17T20:42:33.431Z,31.70
2018-02-17T20:45:00.891Z,32.33
2018-02-17T20:47:29.115Z,32.90
2018-02-17T20:49:56.590Z,31.53
2018-02-17T20:52:24.034Z,29.33
2018-02-17T20:54:51.498Z,30.50
2018-02-17T20:57:19.796Z,32.00
2018-02-17T20:59:47.230Z,32.73
2018-02-17T21:02:14.689Z,34.00
2018-02-17T21:04:42.148Z,30.70
2018-02-17T21:07:10.373Z,30.70
2018-02-17T21:09:38.602Z,30.83
2018-02-17T21:12:06.062Z,31.43
2018-02-17T21:14:33.530Z,31.40
2018-02-17T21:17:00.989Z,31.90
2018-02-17T21:19:28.457Z,27.77
2018-02-17T21:21:55.906Z,30.90
2018-02-17T21:24:23.388Z,31.40
2018-02-17T21:26:51.612Z,32.10
2018-02-17T21:29:19.066Z,29.37
2018-02-17T21:31:46.533Z,30.73
2018-02-17T21:34:13.994Z,32.13
2018-02-17T21:36:41.461Z,33.47
2018-02-17T21:39:08.925Z,30.43
2018-02-17T21:41:36.384Z,33.67
2018-02-17T21:44:04.602Z,32.40
2018-02-17T21:46:32.077Z,29.80
2018-02-17T21:48:59.537Z,28.77
2018-02-17T21:51:26.997Z,28.93
2018-02-17T21:53:54.450Z,32.67
2018-02-17T21:56:21.921Z,33.73
2018-02-17T21:58:49.378Z,33.23
2018-02-17T22:01:16.841Z,31.63
2018-02-17T22:03:44.293Z,31.40
2018-02-17T22:06:11.782Z,30.60
2018-02-17T22:08:40.006Z,33.27
2018-02-17T22:11:07.473Z,33.30
2018-02-17T22:13:34.934Z,32.73
2018-02-17T22:16:02.400Z,32.20
2018-02-17T22:18:29.849Z,32.33
2018-02-17T22:20:57.310Z,33.73
2018-02-17T22:23:24.779Z,33.30
2018-02-17T22:25:52.230Z,31.77
2018-02-17T22:28:19.698Z,32.70
2018-02-17T22:30:47.936Z,31.37
2018-02-17T22:33:15.389Z,32.30
2018-02-17T22:35:42.846Z,32.33
2018-02-17T22:38:10.305Z,34.70
2018-02-17T22:40:37.795Z,33.10
2018-02-17T22:43:05.248Z,32.00
2018-02-17T22:45:32.726Z,31.33
2018-02-17T22:48:00.959Z,34.70
2018-02-17T22:50:28.414Z,34.07
2018-02-17T22:52:55.881Z,35.40
2018-02-17T22:55:23.334Z,35.00
2018-02-17T22:57:50.802Z,35.30
2018-02-17T23:00:30.119Z,34.57
2018-02-17T23:02:58.175Z,32.17
2018-02-17T23:05:25.959Z,34.87
2018-02-17T23:07:55.344Z,33.40
2018-02-17T23:10:23.147Z,32.60
2018-02-17T23:12:51.107Z,31.67
2018-02-17T23:15:19.224Z,30.80
2018-02-17T23:17:47.221Z,32.20
2018-02-17T23:20:15.215Z,33.07
2018-02-17T23:22:43.038Z,34.37
2018-02-17T23:25:12.231Z,34.47
2018-02-17T23:27:40.316Z,32.40
2018-02-17T23:30:08.109Z,30.90
2018-02-17T23:32:36.785Z,33.67
2018-02-17T23:35:04.635Z,32.70
2018-02-17T23:37:32.739Z,30.70
2018-02-17T23:40:01.527Z,29.00
2018-02-17T23:42:29.290Z,31.80
2018-02-17T23:44:57.286Z,32.70
2018-02-17T23:47:25.332Z,33.20
2018-02-17T23:49:53.140Z,31.90
2018-02-17T23:52:20.749Z,32.70
2018-02-17T23:54:49.235Z,32.10
2018-02-17T23:57:18.039Z,30.63
2018-02-17T23:59:45.772Z,32.93
